createdAt,value
2022-10-18T00:05:05.887Z,100695.97
2022-10-18T00:08:04.324Z,100714.81
2022-10-18T00:10:37.028Z,100588.59
2022-10-18T00:14:15.650Z,100752.47
2022-10-18T00:17:05.593Z,100747.84
2022-10-18T00:20:02.083Z,100497.47
2022-10-18T00:22:46.367Z,100427.13
2022-10-18T00:25:34.025Z,100729.25
2022-10-18T00:31:55.688Z,100711.72
2022-10-18T00:34:24.120Z,100603.81
2022-10-18T00:37:15.013Z,100567.88
2022-10-18T00:39:47.287Z,100597.53
2022-10-18T00:42:44.905Z,100837.41
2022-10-18T00:48:11.442Z,100445.13
2022-10-18T00:50:39.264Z,100676.47
2022-10-18T00:53:10.006Z,100594.28
2022-10-18T00:55:37.778Z,100472.41
2022-10-18T00:58:06.229Z,100626.63
2022-10-18T01:00:38.631Z,100665.56
2022-10-18T01:03:06.793Z,100466.16
2022-10-18T01:05:36.686Z,100694.75
2022-10-18T01:08:18.036Z,100710.06
2022-10-18T01:10:53.215Z,100610.88
2022-10-18T01:13:28.968Z,100508.41
2022-10-18T01:15:59.582Z,100768.59
2022-10-18T01:18:30.252Z,100535.72
2022-10-18T01:21:10.856Z,100668.81
2022-10-18T01:23:50.365Z,100738.19
2022-10-18T01:26:25.681Z,100613.66
2022-10-18T01:28:58.380Z,100750.91
2022-10-18T01:31:28.779Z,100702.84
2022-10-18T01:33:58.288Z,100706.19
2022-10-18T01:36:28.586Z,100730.03
2022-10-18T01:38:58.198Z,100712.25
2022-10-18T01:41:26.044Z,100562.66
2022-10-18T01:44:31.062Z,100731.31
2022-10-18T01:47:02.499Z,100722.41
2022-10-18T01:49:30.172Z,100515.97
2022-10-18T01:51:58.304Z,100781.13
2022-10-18T01:54:29.023Z,100712.69
2022-10-18T01:56:59.411Z,100502.78
2022-10-18T01:59:47.946Z,100749.16
2022-10-18T02:07:34.997Z,100714.25
2022-10-18T02:10:07.035Z,100749.16
2022-10-18T02:12:35.771Z,100693.38
2022-10-18T02:15:03.428Z,100668.25
2022-10-18T02:17:31.344Z,100746.47
2022-10-18T02:19:58.934Z,100743.88
2022-10-18T02:22:27.707Z,100687.16
2022-10-18T02:24:57.486Z,100615.94
2022-10-18T02:27:25.042Z,100684.63
2022-10-18T02:29:52.838Z,100660.97
2022-10-18T02:32:22.165Z,100735.00
2022-10-18T02:34:52.519Z,100734.16
2022-10-18T02:37:20.202Z,100700.91
2022-10-18T02:39:48.932Z,100714.91
2022-10-18T02:42:18.089Z,100759.81
2022-10-18T02:44:47.000Z,100734.19
2022-10-18T02:47:15.084Z,100724.47
2022-10-18T02:49:42.732Z,100678.28
2022-10-18T02:52:10.522Z,100706.03
2022-10-18T02:54:38.248Z,100729.88
2022-10-18T02:57:05.843Z,100733.44
2022-10-18T02:59:34.941Z,100735.22
2022-10-18T03:02:02.524Z,100734.31
2022-10-18T03:04:30.303Z,100737.16
2022-10-18T03:06:58.052Z,100732.56
2022-10-18T03:09:25.645Z,100704.09
2022-10-18T03:11:53.279Z,100738.72
2022-10-18T03:14:20.837Z,100737.81
2022-10-18T03:16:50.066Z,100740.47
2022-10-18T03:19:18.721Z,100740.41
2022-10-18T03:21:46.309Z,100672.47
2022-10-18T03:24:14.105Z,100748.34
2022-10-18T03:26:41.689Z,100713.38
2022-10-18T03:29:10.503Z,100743.03
2022-10-18T03:31:38.162Z,100686.44
2022-10-18T03:34:07.301Z,100744.78
2022-10-18T03:36:35.025Z,100713.78
2022-10-18T03:39:02.711Z,100749.19
2022-10-18T03:41:30.303Z,100749.16
2022-10-18T03:43:58.033Z,100722.97
2022-10-18T03:46:25.733Z,100750.91
2022-10-18T03:48:53.461Z,100739.41
2022-10-18T03:51:22.389Z,100738.53
2022-10-18T03:53:51.078Z,100754.44
2022-10-18T03:56:18.739Z,100712.56
2022-10-18T03:58:46.525Z,100743.84
2022-10-18T04:01:14.126Z,100746.50
2022-10-18T04:03:41.939Z,100738.53
2022-10-18T04:06:32.861Z,100779.19
2022-10-18T04:09:04.163Z,100734.97
2022-10-18T04:11:34.570Z,100731.44
2022-10-18T04:14:02.215Z,100782.72
2022-10-18T04:16:29.825Z,100703.75
2022-10-18T04:18:59.135Z,100729.69
2022-10-18T04:21:26.795Z,100702.22
2022-10-18T04:23:54.577Z,100744.75
2022-10-18T04:26:23.862Z,100834.91
2022-10-18T04:28:51.696Z,100643.78
2022-10-18T04:31:19.302Z,100680.47
2022-10-18T04:33:47.076Z,100735.06
2022-10-18T04:36:14.656Z,100743.88
2022-10-18T04:38:42.387Z,100718.63
2022-10-18T04:41:10.175Z,100713.38
2022-10-18T04:43:39.311Z,100687.22
2022-10-18T04:46:07.199Z,100726.41
2022-10-18T04:48:34.977Z,100736.81
2022-10-18T04:51:02.520Z,100760.63
2022-10-18T04:53:30.419Z,100741.16
2022-10-18T04:55:58.003Z,100743.75
2022-10-18T04:58:27.827Z,100721.50
2022-10-18T05:00:56.968Z,100735.78
2022-10-18T05:03:24.768Z,100735.78
2022-10-18T05:06:07.255Z,100743.72
2022-10-18T05:08:35.521Z,100692.25
2022-10-18T05:11:03.390Z,100715.72
2022-10-18T05:13:31.197Z,100745.34
2022-10-18T05:16:00.711Z,100740.94
2022-10-18T05:18:28.690Z,100740.03
2022-10-18T05:20:56.431Z,100714.78
2022-10-18T05:23:24.430Z,100731.38
2022-10-18T05:25:52.046Z,100742.72
2022-10-18T05:28:40.030Z,100737.81
2022-10-18T05:31:09.875Z,100739.34
2022-10-18T05:33:37.492Z,100761.50
2022-10-18T05:36:06.592Z,100768.31
2022-10-18T05:38:34.181Z,100756.78
2022-10-18T05:41:05.303Z,100764.75
2022-10-18T05:43:32.924Z,100747.97
2022-10-18T05:46:01.134Z,100750.56
2022-10-18T05:48:30.074Z,100693.94
2022-10-18T05:50:59.063Z,100755.81
2022-10-18T05:53:41.924Z,100724.81
2022-10-18T05:56:11.737Z,100733.56
2022-10-18T05:58:39.617Z,100758.72
2022-10-18T06:01:07.686Z,100738.63
2022-10-18T06:03:36.990Z,100777.03
2022-10-18T06:06:05.682Z,100760.38
2022-10-18T06:08:33.621Z,100783.34
2022-10-18T06:11:01.523Z,100791.97
2022-10-18T06:13:31.202Z,100754.44
2022-10-18T06:16:00.479Z,100764.59
2022-10-18T06:18:28.347Z,100685.66
2022-10-18T06:20:59.321Z,100683.91
2022-10-18T06:23:27.380Z,100603.69
2022-10-18T06:26:03.095Z,100819.88
2022-10-18T06:28:31.463Z,100798.31
2022-10-18T06:31:00.092Z,100578.50
2022-10-18T06:33:28.030Z,100419.50
2022-10-18T06:35:57.471Z,100681.00
2022-10-18T06:38:29.455Z,100530.94
2022-10-18T06:40:57.717Z,100615.22
2022-10-18T06:43:25.659Z,100741.44
2022-10-18T06:45:53.480Z,100812.16
2022-10-18T06:48:21.568Z,100775.47
2022-10-18T06:50:53.731Z,100746.84
2022-10-18T06:53:21.537Z,100844.69
2022-10-18T06:55:50.854Z,100807.75
2022-10-18T06:58:23.627Z,100767.13
2022-10-18T07:01:02.551Z,100451.13
2022-10-18T07:03:30.611Z,100622.91
2022-10-18T07:06:02.751Z,100907.66
2022-10-18T07:08:31.307Z,100705.44
2022-10-18T07:11:00.689Z,100402.34
2022-10-18T07:13:32.810Z,100808.69
2022-10-18T07:16:05.590Z,100864.91
2022-10-18T07:18:34.767Z,100827.94
2022-10-18T07:22:13.448Z,100802.69
2022-10-18T07:43:04.670Z,100849.03
2022-10-18T08:24:47.459Z,100933.53
2022-10-18T08:27:15.912Z,101018.19
2022-10-18T08:30:09.959Z,100744.69
2022-10-18T08:32:40.712Z,100730.28
2022-10-18T08:35:11.338Z,100793.47
2022-10-18T08:37:45.448Z,100848.38
2022-10-18T08:40:15.909Z,100926.97
2022-10-18T08:42:58.970Z,100870.28
2022-10-18T08:45:37.719Z,100849.94
2022-10-18T08:48:09.434Z,100920.09
2022-10-18T08:50:38.695Z,100935.19
2022-10-18T08:53:11.216Z,100875.97
2022-10-18T08:55:42.105Z,100924.56
2022-10-18T08:58:16.838Z,100901.94
2022-10-18T09:00:47.393Z,100916.34
2022-10-18T09:03:24.830Z,100832.84
2022-10-18T09:05:53.217Z,100924.22
2022-10-18T09:08:46.998Z,100934.31
2022-10-18T09:11:28.097Z,100824.25
2022-10-18T09:14:29.377Z,100936.03
2022-10-18T09:17:01.422Z,100872.47
2022-10-18T09:19:36.938Z,100939.44
2022-10-18T09:22:09.675Z,100931.31
2022-10-18T09:24:40.187Z,100863.72
2022-10-18T09:27:15.611Z,100938.72
2022-10-18T09:30:19.210Z,100917.59
2022-10-18T09:32:51.611Z,100861.88
2022-10-18T09:35:21.593Z,100960.13
2022-10-18T09:37:49.467Z,100960.00
2022-10-18T09:40:19.206Z,101027.78
2022-10-18T09:42:53.989Z,100953.13
2022-10-18T09:45:25.965Z,100948.94
2022-10-18T09:47:58.553Z,100956.69
2022-10-18T09:50:27.454Z,100925.56
2022-10-18T09:53:17.433Z,100875.16
2022-10-18T09:56:10.400Z,100673.91
2022-10-18T09:58:46.576Z,100961.53
2022-10-18T10:02:06.730Z,100998.47
2022-10-18T10:05:33.290Z,100965.94
2022-10-18T10:11:57.901Z,100982.13
2022-10-18T10:18:02.823Z,100681.00
2022-10-18T10:20:38.214Z,100959.78
2022-10-18T10:23:07.584Z,100618.09
2022-10-18T10:25:38.170Z,100970.56
2022-10-18T10:28:07.841Z,100924.81
2022-10-18T10:33:39.896Z,100842.19
2022-10-18T10:50:35.184Z,100887.09
2022-10-18T10:53:02.811Z,100870.19
2022-10-18T10:55:36.726Z,100911.28
2022-10-18T10:58:04.585Z,101008.84
2022-10-18T11:00:40.593Z,100796.47
2022-10-18T11:03:54.823Z,100857.59
2022-10-18T11:07:44.800Z,100970.94
2022-10-18T11:50:09.259Z,100952.75
2022-10-18T11:53:23.258Z,100952.81
2022-10-18T11:56:18.703Z,100919.44
2022-10-18T11:59:25.175Z,100760.66
2022-10-18T12:02:10.538Z,100757.06
2022-10-18T12:05:05.375Z,100740.84
2022-10-18T12:08:00.055Z,100769.84
2022-10-18T12:10:53.049Z,100986.81
2022-10-18T12:16:51.549Z,100910.38
2022-10-18T12:19:25.469Z,100634.34
2022-10-18T12:22:24.609Z,100655.63
2022-10-18T12:24:54.327Z,100668.03
2022-10-18T12:27:37.096Z,100693.78
2022-10-18T12:30:15.276Z,101005.97
2022-10-18T12:33:03.406Z,100878.50
2022-10-18T12:35:46.507Z,100778.38
2022-10-18T12:38:34.408Z,100528.69
2022-10-18T12:41:03.449Z,100867.19
2022-10-18T12:43:34.013Z,100915.13
2022-10-18T12:46:02.290Z,100846.22
2022-10-18T12:48:32.623Z,100919.88
2022-10-18T12:51:53.513Z,100795.88
2022-10-18T12:54:23.369Z,100752.81
2022-10-18T12:56:52.537Z,100741.59
2022-10-18T13:00:00.178Z,100673.72
2022-10-18T13:02:36.774Z,100785.44
2022-10-18T13:05:48.765Z,100934.38
2022-10-18T13:08:43.232Z,100829.34
2022-10-18T13:11:36.673Z,100875.81
2022-10-18T13:14:38.740Z,100947.63
2022-10-18T14:59:35.224Z,100933.31
2022-10-18T15:02:08.821Z,100955.25
2022-10-18T15:04:37.163Z,100897.19
2022-10-18T15:07:06.344Z,100905.94
2022-10-18T15:09:35.807Z,100823.50
2022-10-18T15:12:04.452Z,100869.63
2022-10-18T15:14:35.919Z,100979.66
2022-10-18T15:17:05.007Z,100886.69
2022-10-18T15:19:35.383Z,100813.59
2022-10-18T15:22:30.631Z,100852.84
2022-10-18T15:25:14.751Z,100867.78
2022-10-18T15:27:44.856Z,100947.81
2022-10-18T15:30:22.899Z,100965.13
2022-10-18T15:32:52.315Z,100948.59
2022-10-18T15:35:25.940Z,100944.88
2022-10-18T15:37:54.119Z,100880.34
2022-10-18T15:40:45.597Z,100964.28
2022-10-18T15:43:34.881Z,100961.03
2022-10-18T15:46:06.521Z,100915.69
2022-10-18T15:48:36.241Z,100971.47
2022-10-18T15:51:05.709Z,100939.00
2022-10-18T15:53:42.620Z,100894.75
2022-10-18T15:56:27.726Z,100907.47
2022-10-18T15:58:56.904Z,100876.03
2022-10-18T16:01:36.818Z,100955.25
2022-10-18T16:04:14.907Z,100968.66
2022-10-18T16:06:42.517Z,100922.47
2022-10-18T16:09:13.437Z,100970.09
2022-10-18T16:11:41.003Z,100949.53
2022-10-18T16:14:08.727Z,100983.00
2022-10-18T16:16:38.460Z,100957.56
2022-10-18T16:19:07.227Z,100978.59
2022-10-18T16:21:36.694Z,100951.91
2022-10-18T16:24:05.594Z,100792.69
2022-10-18T16:26:34.026Z,100896.72
2022-10-18T16:29:04.750Z,100812.59
2022-10-18T16:31:34.351Z,100912.81
2022-10-18T16:34:04.089Z,100986.91
2022-10-18T16:36:33.095Z,100973.91
2022-10-18T16:39:02.856Z,100956.97
2022-10-18T16:41:30.486Z,100984.09
2022-10-18T16:43:58.108Z,100984.38
2022-10-18T16:46:27.595Z,100977.00
2022-10-18T16:48:56.028Z,100780.53
2022-10-18T16:51:30.663Z,100904.94
2022-10-18T16:57:26.479Z,100847.22
2022-10-18T17:00:04.493Z,100969.94
2022-10-18T17:02:58.372Z,100847.63
2022-10-18T17:08:21.708Z,101012.81
2022-10-18T17:10:49.953Z,100964.22
2022-10-18T17:13:17.750Z,100880.59
2022-10-18T17:15:45.777Z,100915.81
2022-10-18T17:18:15.072Z,100784.72
2022-10-18T17:20:42.884Z,101029.50
2022-10-18T17:23:16.431Z,100919.47
2022-10-18T17:25:57.527Z,100865.41
2022-10-18T17:28:32.445Z,100962.56
2022-10-18T17:31:00.521Z,101093.47
2022-10-18T17:33:28.285Z,100892.31
2022-10-18T17:35:56.003Z,100768.03
2022-10-18T17:38:25.537Z,101078.69
2022-10-18T17:40:54.633Z,101027.81
2022-10-18T17:43:22.403Z,100710.69
2022-10-18T17:45:51.052Z,101027.69
2022-10-18T17:48:18.940Z,100712.59
2022-10-18T17:50:46.816Z,101126.69
2022-10-18T17:53:16.655Z,100848.53
2022-10-18T17:55:45.985Z,100740.56
2022-10-18T17:58:13.828Z,100963.84
2022-10-18T18:00:42.844Z,101086.75
2022-10-18T18:03:10.799Z,100984.03
2022-10-18T18:05:38.814Z,100915.84
2022-10-18T18:08:07.090Z,101033.06
2022-10-18T18:10:35.091Z,100713.19
2022-10-18T18:13:04.472Z,101000.03
2022-10-18T18:15:32.281Z,101086.38
2022-10-18T18:18:00.207Z,101039.44
2022-10-18T18:20:28.002Z,101049.84
2022-10-18T18:22:55.734Z,101179.28
2022-10-18T18:25:23.888Z,100785.97
2022-10-18T18:27:51.634Z,101007.13
2022-10-18T18:30:21.835Z,101003.00
2022-10-18T18:32:49.857Z,101022.09
2022-10-18T18:35:17.625Z,101013.88
2022-10-18T18:37:45.364Z,101093.47
2022-10-18T18:40:13.213Z,100910.97
2022-10-18T18:42:41.191Z,101090.09
2022-10-18T18:45:09.258Z,101061.59
2022-10-18T18:47:38.450Z,101079.25
2022-10-18T18:50:06.871Z,100963.66
2022-10-18T18:52:35.014Z,100786.00
2022-10-18T18:55:03.289Z,100717.75
2022-10-18T18:57:31.568Z,100732.75
2022-10-18T18:59:59.875Z,100873.59
2022-10-18T19:02:27.646Z,100686.34
2022-10-18T19:04:57.097Z,100798.38
2022-10-18T19:07:25.213Z,100885.03
2022-10-18T19:09:53.034Z,100886.84
2022-10-18T19:12:21.532Z,100929.75
2022-10-18T19:14:49.467Z,101099.72
2022-10-18T19:17:17.569Z,100793.94
2022-10-18T19:19:45.728Z,100953.50
2022-10-18T19:22:22.952Z,100784.38
2022-10-18T19:24:50.882Z,101013.81
2022-10-18T19:27:18.724Z,101114.06
2022-10-18T19:29:48.681Z,100900.03
2022-10-18T19:32:20.980Z,100881.63
2022-10-18T19:34:48.934Z,100603.28
2022-10-18T19:37:17.082Z,100776.56
2022-10-18T19:39:46.691Z,100977.16
2022-10-18T19:42:17.478Z,100957.03
2022-10-18T19:44:49.156Z,100894.81
2022-10-18T19:53:38.794Z,100620.69
2022-10-18T19:56:12.066Z,100850.06
2022-10-18T19:58:39.868Z,100832.56
2022-10-18T20:01:07.755Z,100737.16
2022-10-18T20:03:35.680Z,100726.63
2022-10-18T20:06:05.321Z,100696.84
2022-10-18T20:08:33.972Z,100971.06
2022-10-18T20:11:03.237Z,100987.75
2022-10-18T20:13:32.455Z,101118.47
2022-10-18T20:16:00.524Z,100813.28
2022-10-18T20:18:28.502Z,100924.63
2022-10-18T20:20:56.295Z,100895.69
2022-10-18T20:23:24.198Z,100818.50
2022-10-18T20:25:58.965Z,100902.72
2022-10-18T20:28:27.966Z,101050.84
2022-10-18T20:31:06.937Z,101103.50
2022-10-18T20:33:35.055Z,101075.44
2022-10-18T20:36:09.506Z,101064.91
2022-10-18T20:38:37.880Z,100933.38
2022-10-18T20:41:09.028Z,101090.34
2022-10-18T20:43:36.841Z,101066.63
2022-10-18T20:46:07.223Z,101114.94
2022-10-18T20:48:35.121Z,101019.28
2022-10-18T20:51:05.779Z,100774.06
2022-10-18T20:53:33.763Z,101115.78
2022-10-18T20:56:04.850Z,101104.38
2022-10-18T20:58:32.829Z,101114.81
2022-10-18T21:01:08.357Z,101014.00
2022-10-18T21:03:38.040Z,101131.56
2022-10-18T21:06:13.195Z,101110.50
2022-10-18T21:08:41.049Z,101019.97
2022-10-18T21:11:09.291Z,101042.94
2022-10-18T21:13:37.256Z,101018.16
2022-10-18T21:16:07.112Z,101104.34
2022-10-18T21:18:35.568Z,100976.16
2022-10-18T21:21:10.714Z,100963.88
2022-10-18T21:23:38.660Z,101098.22
2022-10-18T21:26:06.701Z,101054.31
2022-10-18T21:28:34.551Z,101088.53
2022-10-18T21:31:17.234Z,101034.13
2022-10-18T21:33:45.197Z,100858.13
2022-10-18T21:36:13.420Z,101054.28
2022-10-18T21:38:41.407Z,101056.06
2022-10-18T21:41:10.493Z,101073.59
2022-10-18T21:43:39.969Z,101065.69
2022-10-18T21:46:08.172Z,100976.97
2022-10-18T21:48:37.415Z,100911.22
2022-10-18T21:51:15.105Z,101047.25
2022-10-18T21:53:45.931Z,101060.44
2022-10-18T21:56:14.451Z,101064.78
2022-10-18T21:58:42.151Z,101061.28
2022-10-18T22:01:10.390Z,101067.41
2022-10-18T22:03:39.544Z,101028.75
2022-10-18T22:06:09.346Z,101062.13
2022-10-18T22:08:37.261Z,100986.47
2022-10-18T22:11:05.058Z,101026.09
2022-10-18T22:13:32.915Z,101012.03
2022-10-18T22:16:01.889Z,100998.72
2022-10-18T22:18:29.778Z,101061.19
2022-10-18T22:21:00.054Z,101058.50
2022-10-18T22:23:32.072Z,101069.88
2022-10-18T22:26:03.322Z,101064.63
2022-10-18T22:28:30.950Z,101054.13
2022-10-18T22:30:59.045Z,101079.50
2022-10-18T22:33:26.614Z,101055.78
2022-10-18T22:35:54.499Z,101054.09
2022-10-18T22:38:24.137Z,100869.72
2022-10-18T22:40:52.129Z,101050.56
2022-10-18T22:43:20.105Z,100977.69
2022-10-18T22:45:47.932Z,101001.41
2022-10-18T22:48:15.542Z,100919.69
2022-10-18T22:57:11.589Z,100762.78
2022-10-18T23:00:42.646Z,100609.66
2022-10-18T23:07:20.991Z,100592.94
2022-10-18T23:14:15.311Z,100885.91
2022-10-18T23:17:47.965Z,101088.81
2022-10-18T23:24:26.705Z,100965.34
2022-10-18T23:26:55.543Z,100864.97
2022-10-18T23:29:24.508Z,101067.69
2022-10-18T23:31:52.161Z,101066.00
2022-10-18T23:34:19.723Z,101062.47
2022-10-18T23:36:47.432Z,101072.09
2022-10-18T23:39:15.037Z,101065.94
2022-10-18T23:41:43.756Z,101057.19
2022-10-18T23:44:11.438Z,101065.03
2022-10-18T23:46:42.459Z,101054.50
2022-10-18T23:49:10.169Z,101050.09
2022-10-18T23:51:37.716Z,101049.19
2022-10-18T23:54:05.303Z,101056.16
2022-10-18T23:56:32.962Z,101063.16
2022-10-18T23:59:00.655Z,101064.00
